Bookmark and Share
Track history (hours):
 

Highspeed 5

Last reported at 2014-Apr-16 18:24 UTC. Time now 2014-Apr-17 06:43 UTC.
Position N 37°41' E 024°36'.

Length 85 m; draft 3 m.

Type: High speed craft. MMSI: 240348000.

NotesDate/timePositionNaut miles runAvg speedWind from/ knotsBaromVisibWave heightAir tempDewpointWater temp
2014-Apr-16 18:24N 37°41' E 024°36'2732.1
2014-Apr-16 17:33N 37°32' E 025°09'9 8.8
2014-Apr-16 16:33N 37°28' E 025°19'2924.2
2014-Apr-16 15:21N 37°39' E 024°45'53 5.4
2014-Apr-16 05:34N 37°47' E 023°38'10 9.6
2014-Apr-16 04:33N 37°57' E 023°38'0 0.0
2014-Apr-16 03:33N 37°57' E 023°38'0 0.0
2014-Apr-16 02:30N 37°57' E 023°38'0 0.0
2014-Apr-16 01:33N 37°57' E 023°38'0 0.0
2014-Apr-16 00:33N 37°57' E 023°38'0 0.0
2014-Apr-15 23:24N 37°57' E 023°38'0 0.0
2014-Apr-15 22:18N 37°57' E 023°38'0 0.0
2014-Apr-15 21:30N 37°57' E 023°38'0 0.0
2014-Apr-15 20:24N 37°57' E 023°38'0 0.0
2014-Apr-15 19:30N 37°57' E 023°38'0 0.0
2014-Apr-15 18:33N 37°57' E 023°38'0 0.0
2014-Apr-15 17:21N 37°57' E 023°38'0 0.0
2014-Apr-15 16:33N 37°57' E 023°38'0 0.0
2014-Apr-15 15:33N 37°57' E 023°38'0 0.0
2014-Apr-15 14:21N 37°57' E 023°38'0 0.0
2014-Apr-15 12:31N 37°57' E 023°38'0 0.0
2014-Apr-15 09:34N 37°57' E 023°38'0 0.0
2014-Apr-15 08:34N 37°57' E 023°38'0 0.0
2014-Apr-14 18:30N 37°57' E 023°38'  
2014-Apr-09 13:08N 37°57' E 023°38'0 0.0
2014-Apr-09 08:14N 37°57' E 023°38'0 0.0
2014-Apr-09 07:32N 37°57' E 023°38'0 0.0
2014-Apr-08 13:30N 37°57' E 023°38'6 6.3
2014-Apr-08 12:33N 37°51' E 023°36'6 1.2
2014-Apr-08 07:30N 37°57' E 023°38'0 0.0
2014-Apr-08 06:30N 37°57' E 023°38'0 0.0
2014-Apr-07 13:33N 37°57' E 023°38'0 0.0
2014-Apr-07 12:32N 37°57' E 023°38'0 0.0
2014-Apr-07 11:31N 37°57' E 023°38'0 0.0
2014-Apr-07 10:31N 37°57' E 023°38'0 0.0
2014-Apr-07 09:31N 37°57' E 023°38'0 0.0
2014-Apr-07 08:19N 37°57' E 023°38'0 0.0
2014-Apr-07 07:31N 37°57' E 023°38'0 0.0
2014-Apr-07 06:22N 37°57' E 023°38'  

Dump ship's entire track history

sailing weather and tide predictions

Highspeed 5 — SYDM — position and weather